sensor_id;sensor_type;location;lat;lon;timestamp;P1;durP1;ratioP1;P2;durP2;ratioP2
57303;SDS011;43150;50.986;18.208;2023-07-16T00:01:51;5.50;;;4.70;;
57303;SDS011;43150;50.986;18.208;2023-07-16T00:04:17;5.40;;;4.80;;
57303;SDS011;43150;50.986;18.208;2023-07-16T00:06:43;4.90;;;4.40;;
57303;SDS011;43150;50.986;18.208;2023-07-16T00:09:12;6.90;;;4.80;;
57303;SDS011;43150;50.986;18.208;2023-07-16T00:11:38;5.80;;;5.20;;
57303;SDS011;43150;50.986;18.208;2023-07-16T00:14:05;6.70;;;5.10;;
57303;SDS011;43150;50.986;18.208;2023-07-16T00:16:30;6.10;;;4.90;;
57303;SDS011;43150;50.986;18.208;2023-07-16T00:18:56;5.50;;;5.00;;
57303;SDS011;43150;50.986;18.208;2023-07-16T00:21:22;7.10;;;5.10;;
57303;SDS011;43150;50.986;18.208;2023-07-16T00:23:48;6.40;;;5.00;;
57303;SDS011;43150;50.986;18.208;2023-07-16T00:26:14;5.80;;;5.20;;
57303;SDS011;43150;50.986;18.208;2023-07-16T00:28:39;7.10;;;5.10;;
57303;SDS011;43150;50.986;18.208;2023-07-16T00:31:05;7.70;;;5.40;;
57303;SDS011;43150;50.986;18.208;2023-07-16T00:33:30;7.50;;;5.40;;
57303;SDS011;43150;50.986;18.208;2023-07-16T00:35:56;6.30;;;5.20;;
57303;SDS011;43150;50.986;18.208;2023-07-16T00:38:21;7.60;;;5.10;;
57303;SDS011;43150;50.986;18.208;2023-07-16T00:40:47;5.90;;;5.40;;
57303;SDS011;43150;50.986;18.208;2023-07-16T00:43:13;5.40;;;4.70;;
57303;SDS011;43150;50.986;18.208;2023-07-16T00:45:39;6.20;;;5.50;;
57303;SDS011;43150;50.986;18.208;2023-07-16T00:48:05;6.30;;;5.10;;
57303;SDS011;43150;50.986;18.208;2023-07-16T00:50:31;6.10;;;4.70;;
57303;SDS011;43150;50.986;18.208;2023-07-16T00:53:02;6.20;;;4.80;;
57303;SDS011;43150;50.986;18.208;2023-07-16T00:55:31;5.50;;;5.00;;
57303;SDS011;43150;50.986;18.208;2023-07-16T00:57:58;5.20;;;4.70;;
57303;SDS011;43150;50.986;18.208;2023-07-16T01:00:28;5.70;;;4.80;;
57303;SDS011;43150;50.986;18.208;2023-07-16T01:02:53;6.60;;;5.00;;
57303;SDS011;43150;50.986;18.208;2023-07-16T01:05:19;5.30;;;4.80;;
57303;SDS011;43150;50.986;18.208;2023-07-16T01:07:51;5.70;;;5.10;;
57303;SDS011;43150;50.986;18.208;2023-07-16T01:10:22;5.70;;;5.00;;
57303;SDS011;43150;50.986;18.208;2023-07-16T01:12:49;5.40;;;4.90;;
57303;SDS011;43150;50.986;18.208;2023-07-16T01:15:15;5.10;;;4.60;;
57303;SDS011;43150;50.986;18.208;2023-07-16T01:17:41;7.30;;;5.10;;
57303;SDS011;43150;50.986;18.208;2023-07-16T01:20:07;5.50;;;4.80;;
57303;SDS011;43150;50.986;18.208;2023-07-16T01:25:01;5.30;;;4.80;;
57303;SDS011;43150;50.986;18.208;2023-07-16T01:30:03;5.50;;;5.00;;
57303;SDS011;43150;50.986;18.208;2023-07-16T01:32:30;5.30;;;4.80;;
57303;SDS011;43150;50.986;18.208;2023-07-16T01:34:56;5.30;;;4.70;;
57303;SDS011;43150;50.986;18.208;2023-07-16T01:37:22;5.20;;;4.70;;
57303;SDS011;43150;50.986;18.208;2023-07-16T01:39:48;5.70;;;5.00;;
57303;SDS011;43150;50.986;18.208;2023-07-16T01:42:14;5.40;;;4.90;;
57303;SDS011;43150;50.986;18.208;2023-07-16T01:44:40;6.30;;;5.10;;
57303;SDS011;43150;50.986;18.208;2023-07-16T01:49:32;5.60;;;5.00;;
57303;SDS011;43150;50.986;18.208;2023-07-16T01:51:59;5.90;;;5.00;;
57303;SDS011;43150;50.986;18.208;2023-07-16T01:54:25;5.80;;;5.10;;
57303;SDS011;43150;50.986;18.208;2023-07-16T01:56:50;6.10;;;5.40;;
57303;SDS011;43150;50.986;18.208;2023-07-16T01:59:16;5.80;;;5.00;;
57303;SDS011;43150;50.986;18.208;2023-07-16T02:01:41;5.70;;;5.20;;
57303;SDS011;43150;50.986;18.208;2023-07-16T02:04:07;5.90;;;5.20;;
57303;SDS011;43150;50.986;18.208;2023-07-16T02:06:33;5.40;;;4.90;;
57303;SDS011;43150;50.986;18.208;2023-07-16T02:08:59;8.70;;;5.60;;
57303;SDS011;43150;50.986;18.208;2023-07-16T02:11:24;5.90;;;5.30;;
57303;SDS011;43150;50.986;18.208;2023-07-16T02:13:50;7.80;;;5.40;;
57303;SDS011;43150;50.986;18.208;2023-07-16T02:16:16;8.90;;;5.50;;
57303;SDS011;43150;50.986;18.208;2023-07-16T02:18:42;6.40;;;5.50;;
57303;SDS011;43150;50.986;18.208;2023-07-16T02:21:07;6.30;;;5.70;;
57303;SDS011;43150;50.986;18.208;2023-07-16T02:23:33;7.10;;;5.50;;
57303;SDS011;43150;50.986;18.208;2023-07-16T02:25:59;6.30;;;5.30;;
57303;SDS011;43150;50.986;18.208;2023-07-16T02:28:25;6.50;;;5.40;;
57303;SDS011;43150;50.986;18.208;2023-07-16T02:30:53;5.80;;;5.10;;
57303;SDS011;43150;50.986;18.208;2023-07-16T02:33:19;6.00;;;5.40;;
57303;SDS011;43150;50.986;18.208;2023-07-16T02:35:48;6.20;;;5.60;;
57303;SDS011;43150;50.986;18.208;2023-07-16T02:38:14;5.90;;;5.30;;
57303;SDS011;43150;50.986;18.208;2023-07-16T02:40:43;6.60;;;6.00;;
57303;SDS011;43150;50.986;18.208;2023-07-16T02:43:09;7.90;;;5.50;;
57303;SDS011;43150;50.986;18.208;2023-07-16T02:45:36;6.40;;;5.80;;
57303;SDS011;43150;50.986;18.208;2023-07-16T02:48:02;6.30;;;5.80;;
57303;SDS011;43150;50.986;18.208;2023-07-16T02:50:27;7.10;;;6.10;;
57303;SDS011;43150;50.986;18.208;2023-07-16T02:52:53;6.20;;;5.70;;
57303;SDS011;43150;50.986;18.208;2023-07-16T02:55:18;6.40;;;5.80;;
57303;SDS011;43150;50.986;18.208;2023-07-16T02:57:44;7.90;;;6.30;;
57303;SDS011;43150;50.986;18.208;2023-07-16T03:00:10;6.60;;;5.70;;
57303;SDS011;43150;50.986;18.208;2023-07-16T03:02:35;6.90;;;5.90;;
57303;SDS011;43150;50.986;18.208;2023-07-16T03:05:01;7.20;;;6.10;;
57303;SDS011;43150;50.986;18.208;2023-07-16T03:07:27;7.00;;;5.90;;
57303;SDS011;43150;50.986;18.208;2023-07-16T03:09:52;6.30;;;5.50;;
57303;SDS011;43150;50.986;18.208;2023-07-16T03:12:18;6.80;;;6.00;;
57303;SDS011;43150;50.986;18.208;2023-07-16T03:14:44;6.70;;;6.10;;
57303;SDS011;43150;50.986;18.208;2023-07-16T03:17:10;6.70;;;6.00;;
57303;SDS011;43150;50.986;18.208;2023-07-16T03:19:35;7.10;;;6.10;;
57303;SDS011;43150;50.986;18.208;2023-07-16T03:22:01;8.10;;;6.50;;
57303;SDS011;43150;50.986;18.208;2023-07-16T03:24:28;7.30;;;6.60;;
57303;SDS011;43150;50.986;18.208;2023-07-16T03:26:56;7.50;;;6.50;;
57303;SDS011;43150;50.986;18.208;2023-07-16T03:29:22;6.60;;;6.00;;
57303;SDS011;43150;50.986;18.208;2023-07-16T03:31:49;6.80;;;6.20;;
57303;SDS011;43150;50.986;18.208;2023-07-16T03:34:14;7.30;;;6.60;;
57303;SDS011;43150;50.986;18.208;2023-07-16T03:36:40;8.40;;;6.30;;
57303;SDS011;43150;50.986;18.208;2023-07-16T03:39:06;8.30;;;6.60;;
57303;SDS011;43150;50.986;18.208;2023-07-16T03:41:32;7.00;;;6.40;;
57303;SDS011;43150;50.986;18.208;2023-07-16T03:43:57;7.10;;;6.50;;
57303;SDS011;43150;50.986;18.208;2023-07-16T03:46:23;7.70;;;7.00;;
57303;SDS011;43150;50.986;18.208;2023-07-16T03:48:48;7.20;;;6.40;;
57303;SDS011;43150;50.986;18.208;2023-07-16T03:51:14;7.80;;;6.70;;
57303;SDS011;43150;50.986;18.208;2023-07-16T03:53:40;6.60;;;6.00;;
57303;SDS011;43150;50.986;18.208;2023-07-16T03:56:05;7.40;;;6.70;;
57303;SDS011;43150;50.986;18.208;2023-07-16T03:58:31;7.20;;;6.50;;
57303;SDS011;43150;50.986;18.208;2023-07-16T04:00:57;6.60;;;6.00;;
57303;SDS011;43150;50.986;18.208;2023-07-16T04:03:22;7.60;;;6.80;;
57303;SDS011;43150;50.986;18.208;2023-07-16T04:05:48;7.60;;;6.70;;
57303;SDS011;43150;50.986;18.208;2023-07-16T04:08:13;6.90;;;6.10;;
57303;SDS011;43150;50.986;18.208;2023-07-16T04:10:39;6.90;;;6.20;;
57303;SDS011;43150;50.986;18.208;2023-07-16T04:13:08;6.80;;;6.20;;
57303;SDS011;43150;50.986;18.208;2023-07-16T04:15:36;7.70;;;6.60;;
57303;SDS011;43150;50.986;18.208;2023-07-16T04:18:02;7.30;;;6.70;;
57303;SDS011;43150;50.986;18.208;2023-07-16T04:20:29;7.60;;;6.80;;
57303;SDS011;43150;50.986;18.208;2023-07-16T04:22:57;7.20;;;6.50;;
57303;SDS011;43150;50.986;18.208;2023-07-16T04:25:22;6.80;;;6.30;;
57303;SDS011;43150;50.986;18.208;2023-07-16T04:27:48;7.40;;;6.80;;
57303;SDS011;43150;50.986;18.208;2023-07-16T04:30:14;7.20;;;6.50;;
57303;SDS011;43150;50.986;18.208;2023-07-16T04:32:39;7.20;;;6.60;;
57303;SDS011;43150;50.986;18.208;2023-07-16T04:35:05;8.00;;;7.20;;
57303;SDS011;43150;50.986;18.208;2023-07-16T04:37:31;7.70;;;6.70;;
57303;SDS011;43150;50.986;18.208;2023-07-16T04:39:56;8.60;;;7.00;;
57303;SDS011;43150;50.986;18.208;2023-07-16T04:42:22;7.80;;;7.10;;
57303;SDS011;43150;50.986;18.208;2023-07-16T04:44:48;7.00;;;6.40;;
57303;SDS011;43150;50.986;18.208;2023-07-16T04:47:13;7.10;;;6.50;;
57303;SDS011;43150;50.986;18.208;2023-07-16T04:49:39;7.40;;;6.70;;
57303;SDS011;43150;50.986;18.208;2023-07-16T04:52:05;6.90;;;6.30;;
57303;SDS011;43150;50.986;18.208;2023-07-16T04:54:34;7.00;;;6.40;;
57303;SDS011;43150;50.986;18.208;2023-07-16T04:57:00;6.70;;;6.20;;
57303;SDS011;43150;50.986;18.208;2023-07-16T04:59:26;7.50;;;6.80;;
57303;SDS011;43150;50.986;18.208;2023-07-16T05:01:51;7.40;;;6.60;;
57303;SDS011;43150;50.986;18.208;2023-07-16T05:04:17;7.30;;;6.50;;
57303;SDS011;43150;50.986;18.208;2023-07-16T05:06:43;6.40;;;5.80;;
57303;SDS011;43150;50.986;18.208;2023-07-16T05:09:08;6.80;;;6.30;;
57303;SDS011;43150;50.986;18.208;2023-07-16T05:11:34;7.40;;;6.80;;
57303;SDS011;43150;50.986;18.208;2023-07-16T05:13:59;6.80;;;6.20;;
57303;SDS011;43150;50.986;18.208;2023-07-16T05:16:24;6.80;;;6.10;;
57303;SDS011;43150;50.986;18.208;2023-07-16T05:18:50;7.80;;;7.00;;
57303;SDS011;43150;50.986;18.208;2023-07-16T05:21:19;6.30;;;5.90;;
57303;SDS011;43150;50.986;18.208;2023-07-16T05:23:47;7.40;;;6.70;;
57303;SDS011;43150;50.986;18.208;2023-07-16T05:26:13;7.70;;;6.50;;
57303;SDS011;43150;50.986;18.208;2023-07-16T05:28:38;7.10;;;6.50;;
57303;SDS011;43150;50.986;18.208;2023-07-16T05:31:04;6.90;;;6.30;;
57303;SDS011;43150;50.986;18.208;2023-07-16T05:33:29;7.70;;;6.90;;
57303;SDS011;43150;50.986;18.208;2023-07-16T05:35:55;6.90;;;6.20;;
57303;SDS011;43150;50.986;18.208;2023-07-16T05:38:20;7.40;;;6.70;;
57303;SDS011;43150;50.986;18.208;2023-07-16T05:40:46;7.10;;;6.40;;
57303;SDS011;43150;50.986;18.208;2023-07-16T05:43:12;8.80;;;6.00;;
57303;SDS011;43150;50.986;18.208;2023-07-16T05:45:40;7.10;;;6.40;;
57303;SDS011;43150;50.986;18.208;2023-07-16T05:48:06;6.60;;;5.90;;
57303;SDS011;43150;50.986;18.208;2023-07-16T05:50:32;6.90;;;6.20;;
57303;SDS011;43150;50.986;18.208;2023-07-16T05:52:57;7.60;;;6.60;;
57303;SDS011;43150;50.986;18.208;2023-07-16T05:55:23;7.50;;;6.40;;
57303;SDS011;43150;50.986;18.208;2023-07-16T05:57:48;7.10;;;6.40;;
57303;SDS011;43150;50.986;18.208;2023-07-16T06:00:14;6.80;;;5.40;;
57303;SDS011;43150;50.986;18.208;2023-07-16T06:02:40;6.30;;;5.70;;
57303;SDS011;43150;50.986;18.208;2023-07-16T06:05:06;6.00;;;5.40;;
57303;SDS011;43150;50.986;18.208;2023-07-16T06:07:33;7.90;;;5.00;;
57303;SDS011;43150;50.986;18.208;2023-07-16T06:09:59;5.20;;;4.70;;
57303;SDS011;43150;50.986;18.208;2023-07-16T06:12:24;4.90;;;4.40;;
57303;SDS011;43150;50.986;18.208;2023-07-16T06:14:50;4.30;;;4.00;;
57303;SDS011;43150;50.986;18.208;2023-07-16T06:17:15;6.20;;;4.10;;
57303;SDS011;43150;50.986;18.208;2023-07-16T06:19:41;6.50;;;4.00;;
57303;SDS011;43150;50.986;18.208;2023-07-16T06:22:06;5.00;;;4.00;;
57303;SDS011;43150;50.986;18.208;2023-07-16T06:24:34;4.70;;;4.30;;
57303;SDS011;43150;50.986;18.208;2023-07-16T06:27:00;4.90;;;3.60;;
57303;SDS011;43150;50.986;18.208;2023-07-16T06:29:27;4.10;;;3.80;;
57303;SDS011;43150;50.986;18.208;2023-07-16T06:31:55;4.10;;;3.70;;
57303;SDS011;43150;50.986;18.208;2023-07-16T06:34:22;3.80;;;3.00;;
57303;SDS011;43150;50.986;18.208;2023-07-16T06:36:47;5.00;;;3.50;;
57303;SDS011;43150;50.986;18.208;2023-07-16T06:39:13;3.60;;;3.20;;
57303;SDS011;43150;50.986;18.208;2023-07-16T06:41:38;4.80;;;3.20;;
57303;SDS011;43150;50.986;18.208;2023-07-16T06:44:04;5.50;;;3.20;;
57303;SDS011;43150;50.986;18.208;2023-07-16T06:46:29;5.70;;;2.50;;
57303;SDS011;43150;50.986;18.208;2023-07-16T06:48:55;3.90;;;2.30;;
57303;SDS011;43150;50.986;18.208;2023-07-16T06:51:20;3.10;;;2.80;;
57303;SDS011;43150;50.986;18.208;2023-07-16T06:53:46;4.20;;;2.50;;
57303;SDS011;43150;50.986;18.208;2023-07-16T06:56:12;3.90;;;1.90;;
57303;SDS011;43150;50.986;18.208;2023-07-16T06:58:38;2.30;;;2.10;;
57303;SDS011;43150;50.986;18.208;2023-07-16T07:01:03;2.30;;;2.00;;
57303;SDS011;43150;50.986;18.208;2023-07-16T07:03:29;2.70;;;1.90;;
57303;SDS011;43150;50.986;18.208;2023-07-16T07:05:54;2.80;;;2.10;;
57303;SDS011;43150;50.986;18.208;2023-07-16T07:08:20;3.80;;;1.90;;
57303;SDS011;43150;50.986;18.208;2023-07-16T07:10:46;2.00;;;1.70;;
57303;SDS011;43150;50.986;18.208;2023-07-16T07:13:12;1.90;;;1.80;;
57303;SDS011;43150;50.986;18.208;2023-07-16T07:15:38;2.30;;;1.50;;
57303;SDS011;43150;50.986;18.208;2023-07-16T07:18:03;3.30;;;1.80;;
57303;SDS011;43150;50.986;18.208;2023-07-16T07:20:29;2.40;;;1.60;;
57303;SDS011;43150;50.986;18.208;2023-07-16T07:22:54;3.70;;;1.80;;
57303;SDS011;43150;50.986;18.208;2023-07-16T07:25:20;4.10;;;1.40;;
57303;SDS011;43150;50.986;18.208;2023-07-16T07:27:46;2.10;;;1.90;;
57303;SDS011;43150;50.986;18.208;2023-07-16T07:30:11;1.90;;;1.80;;
57303;SDS011;43150;50.986;18.208;2023-07-16T07:32:37;2.60;;;1.60;;
57303;SDS011;43150;50.986;18.208;2023-07-16T07:35:04;2.80;;;1.50;;
57303;SDS011;43150;50.986;18.208;2023-07-16T07:37:32;1.90;;;1.70;;
57303;SDS011;43150;50.986;18.208;2023-07-16T07:39:58;1.90;;;1.50;;
57303;SDS011;43150;50.986;18.208;2023-07-16T07:42:24;2.90;;;1.50;;
57303;SDS011;43150;50.986;18.208;2023-07-16T07:44:50;4.50;;;1.80;;
57303;SDS011;43150;50.986;18.208;2023-07-16T07:47:15;3.50;;;1.60;;
57303;SDS011;43150;50.986;18.208;2023-07-16T07:49:45;2.50;;;1.60;;
57303;SDS011;43150;50.986;18.208;2023-07-16T07:52:11;3.30;;;1.50;;
57303;SDS011;43150;50.986;18.208;2023-07-16T07:54:36;1.70;;;1.40;;
57303;SDS011;43150;50.986;18.208;2023-07-16T07:57:03;2.20;;;1.50;;
57303;SDS011;43150;50.986;18.208;2023-07-16T07:59:29;3.50;;;1.70;;
57303;SDS011;43150;50.986;18.208;2023-07-16T08:01:55;2.40;;;1.90;;
57303;SDS011;43150;50.986;18.208;2023-07-16T08:04:20;2.10;;;1.50;;
57303;SDS011;43150;50.986;18.208;2023-07-16T08:06:46;4.90;;;1.80;;
57303;SDS011;43150;50.986;18.208;2023-07-16T08:09:11;3.80;;;1.80;;
57303;SDS011;43150;50.986;18.208;2023-07-16T08:11:36;2.00;;;1.60;;
57303;SDS011;43150;50.986;18.208;2023-07-16T08:14:02;2.20;;;1.60;;
57303;SDS011;43150;50.986;18.208;2023-07-16T08:16:28;3.00;;;2.10;;
57303;SDS011;43150;50.986;18.208;2023-07-16T08:18:56;3.00;;;1.90;;
57303;SDS011;43150;50.986;18.208;2023-07-16T08:21:22;3.40;;;1.80;;
57303;SDS011;43150;50.986;18.208;2023-07-16T08:23:48;4.80;;;2.20;;
57303;SDS011;43150;50.986;18.208;2023-07-16T08:26:14;3.70;;;1.90;;
57303;SDS011;43150;50.986;18.208;2023-07-16T08:28:39;3.30;;;1.90;;
57303;SDS011;43150;50.986;18.208;2023-07-16T08:31:05;3.70;;;1.80;;
57303;SDS011;43150;50.986;18.208;2023-07-16T08:33:30;3.20;;;1.70;;
57303;SDS011;43150;50.986;18.208;2023-07-16T08:35:56;3.30;;;1.60;;
57303;SDS011;43150;50.986;18.208;2023-07-16T08:38:22;2.70;;;1.80;;
57303;SDS011;43150;50.986;18.208;2023-07-16T08:40:47;2.00;;;1.90;;
57303;SDS011;43150;50.986;18.208;2023-07-16T08:43:14;1.70;;;1.60;;
57303;SDS011;43150;50.986;18.208;2023-07-16T08:45:41;3.60;;;1.70;;
57303;SDS011;43150;50.986;18.208;2023-07-16T08:48:10;2.10;;;1.40;;
57303;SDS011;43150;50.986;18.208;2023-07-16T08:50:36;1.60;;;1.30;;
57303;SDS011;43150;50.986;18.208;2023-07-16T08:53:05;5.40;;;1.10;;
57303;SDS011;43150;50.986;18.208;2023-07-16T08:55:34;3.00;;;1.40;;
57303;SDS011;43150;50.986;18.208;2023-07-16T08:58:03;2.30;;;1.30;;
57303;SDS011;43150;50.986;18.208;2023-07-16T09:00:29;3.00;;;1.20;;
57303;SDS011;43150;50.986;18.208;2023-07-16T09:02:55;1.90;;;1.30;;
57303;SDS011;43150;50.986;18.208;2023-07-16T09:05:21;2.10;;;1.60;;
57303;SDS011;43150;50.986;18.208;2023-07-16T09:07:47;2.50;;;1.20;;
57303;SDS011;43150;50.986;18.208;2023-07-16T09:10:12;5.00;;;1.60;;
57303;SDS011;43150;50.986;18.208;2023-07-16T09:12:44;2.90;;;1.20;;
57303;SDS011;43150;50.986;18.208;2023-07-16T09:15:11;2.30;;;1.40;;
57303;SDS011;43150;50.986;18.208;2023-07-16T09:17:37;1.80;;;1.40;;
57303;SDS011;43150;50.986;18.208;2023-07-16T09:20:04;2.50;;;1.50;;
57303;SDS011;43150;50.986;18.208;2023-07-16T09:22:32;2.60;;;1.40;;
57303;SDS011;43150;50.986;18.208;2023-07-16T09:24:59;1.30;;;1.20;;
57303;SDS011;43150;50.986;18.208;2023-07-16T09:27:28;3.30;;;1.30;;
57303;SDS011;43150;50.986;18.208;2023-07-16T09:29:54;4.70;;;1.30;;
57303;SDS011;43150;50.986;18.208;2023-07-16T09:32:19;3.00;;;1.40;;
57303;SDS011;43150;50.986;18.208;2023-07-16T09:34:51;2.50;;;1.30;;
57303;SDS011;43150;50.986;18.208;2023-07-16T09:37:17;2.50;;;1.30;;
57303;SDS011;43150;50.986;18.208;2023-07-16T09:39:43;1.40;;;1.30;;
57303;SDS011;43150;50.986;18.208;2023-07-16T09:42:11;3.10;;;1.30;;
57303;SDS011;43150;50.986;18.208;2023-07-16T09:44:37;2.70;;;1.20;;
57303;SDS011;43150;50.986;18.208;2023-07-16T09:47:03;1.70;;;1.30;;
57303;SDS011;43150;50.986;18.208;2023-07-16T09:49:28;1.50;;;1.40;;
57303;SDS011;43150;50.986;18.208;2023-07-16T09:51:58;2.20;;;1.60;;
57303;SDS011;43150;50.986;18.208;2023-07-16T09:54:26;4.00;;;2.20;;
57303;SDS011;43150;50.986;18.208;2023-07-16T09:56:55;2.00;;;1.30;;
57303;SDS011;43150;50.986;18.208;2023-07-16T09:59:23;2.40;;;1.40;;
57303;SDS011;43150;50.986;18.208;2023-07-16T10:01:49;3.10;;;2.00;;
57303;SDS011;43150;50.986;18.208;2023-07-16T10:04:19;3.00;;;1.30;;
57303;SDS011;43150;50.986;18.208;2023-07-16T10:06:57;2.90;;;1.50;;
57303;SDS011;43150;50.986;18.208;2023-07-16T10:09:39;4.10;;;2.00;;
57303;SDS011;43150;50.986;18.208;2023-07-16T10:12:14;1.50;;;1.40;;
57303;SDS011;43150;50.986;18.208;2023-07-16T10:14:40;3.30;;;1.20;;
57303;SDS011;43150;50.986;18.208;2023-07-16T10:17:07;1.60;;;1.10;;
57303;SDS011;43150;50.986;18.208;2023-07-16T10:22:19;3.00;;;1.50;;
57303;SDS011;43150;50.986;18.208;2023-07-16T10:24:56;2.10;;;1.50;;
57303;SDS011;43150;50.986;18.208;2023-07-16T10:27:31;3.40;;;1.20;;
57303;SDS011;43150;50.986;18.208;2023-07-16T10:29:57;2.60;;;1.50;;
57303;SDS011;43150;50.986;18.208;2023-07-16T10:32:25;2.60;;;1.50;;
57303;SDS011;43150;50.986;18.208;2023-07-16T10:34:52;1.90;;;1.40;;
57303;SDS011;43150;50.986;18.208;2023-07-16T10:37:18;2.20;;;1.20;;
57303;SDS011;43150;50.986;18.208;2023-07-16T10:42:40;1.30;;;1.20;;
57303;SDS011;43150;50.986;18.208;2023-07-16T10:45:06;1.20;;;1.00;;
57303;SDS011;43150;50.986;18.208;2023-07-16T10:49:57;1.80;;;1.20;;
57303;SDS011;43150;50.986;18.208;2023-07-16T10:52:23;2.60;;;1.30;;
57303;SDS011;43150;50.986;18.208;2023-07-16T10:54:49;2.40;;;1.30;;
57303;SDS011;43150;50.986;18.208;2023-07-16T10:57:24;2.60;;;1.20;;
57303;SDS011;43150;50.986;18.208;2023-07-16T10:59:55;1.30;;;1.20;;
57303;SDS011;43150;50.986;18.208;2023-07-16T11:02:30;0.90;;;0.90;;
57303;SDS011;43150;50.986;18.208;2023-07-16T11:04:55;2.00;;;1.10;;
57303;SDS011;43150;50.986;18.208;2023-07-16T11:07:22;1.90;;;1.00;;
57303;SDS011;43150;50.986;18.208;2023-07-16T11:09:52;1.30;;;1.20;;
57303;SDS011;43150;50.986;18.208;2023-07-16T11:12:19;1.10;;;1.00;;
57303;SDS011;43150;50.986;18.208;2023-07-16T11:14:49;3.10;;;1.20;;
57303;SDS011;43150;50.986;18.208;2023-07-16T11:17:15;1.40;;;1.20;;
57303;SDS011;43150;50.986;18.208;2023-07-16T11:19:44;1.90;;;1.30;;
57303;SDS011;43150;50.986;18.208;2023-07-16T11:22:11;1.20;;;1.10;;
57303;SDS011;43150;50.986;18.208;2023-07-16T11:24:40;2.20;;;1.10;;
57303;SDS011;43150;50.986;18.208;2023-07-16T11:27:12;1.20;;;1.10;;
57303;SDS011;43150;50.986;18.208;2023-07-16T11:29:39;2.10;;;1.20;;
57303;SDS011;43150;50.986;18.208;2023-07-16T11:32:05;1.00;;;0.90;;
57303;SDS011;43150;50.986;18.208;2023-07-16T11:34:30;1.20;;;1.10;;
57303;SDS011;43150;50.986;18.208;2023-07-16T11:37:06;1.00;;;1.00;;
57303;SDS011;43150;50.986;18.208;2023-07-16T11:39:32;1.20;;;1.10;;
57303;SDS011;43150;50.986;18.208;2023-07-16T11:41:57;1.10;;;1.00;;
57303;SDS011;43150;50.986;18.208;2023-07-16T11:44:23;1.90;;;0.90;;
57303;SDS011;43150;50.986;18.208;2023-07-16T11:46:49;1.90;;;1.10;;
57303;SDS011;43150;50.986;18.208;2023-07-16T11:49:15;1.30;;;1.20;;
57303;SDS011;43150;50.986;18.208;2023-07-16T11:51:42;1.60;;;1.40;;
57303;SDS011;43150;50.986;18.208;2023-07-16T11:54:09;1.40;;;1.20;;
57303;SDS011;43150;50.986;18.208;2023-07-16T11:56:36;1.30;;;1.20;;
57303;SDS011;43150;50.986;18.208;2023-07-16T11:59:02;1.20;;;1.10;;
57303;SDS011;43150;50.986;18.208;2023-07-16T12:01:27;1.30;;;1.20;;
57303;SDS011;43150;50.986;18.208;2023-07-16T12:03:53;1.70;;;1.20;;
57303;SDS011;43150;50.986;18.208;2023-07-16T12:06:18;1.60;;;1.20;;
57303;SDS011;43150;50.986;18.208;2023-07-16T12:08:43;1.30;;;1.20;;
57303;SDS011;43150;50.986;18.208;2023-07-16T12:11:09;1.30;;;1.20;;
57303;SDS011;43150;50.986;18.208;2023-07-16T12:13:34;3.00;;;1.30;;
57303;SDS011;43150;50.986;18.208;2023-07-16T12:16:00;1.30;;;1.20;;
57303;SDS011;43150;50.986;18.208;2023-07-16T12:18:25;1.30;;;1.20;;
57303;SDS011;43150;50.986;18.208;2023-07-16T12:20:52;1.40;;;0.90;;
57303;SDS011;43150;50.986;18.208;2023-07-16T12:23:17;2.20;;;1.10;;
57303;SDS011;43150;50.986;18.208;2023-07-16T12:25:43;1.40;;;1.10;;
57303;SDS011;43150;50.986;18.208;2023-07-16T12:28:09;2.40;;;1.40;;
57303;SDS011;43150;50.986;18.208;2023-07-16T12:30:35;1.60;;;1.20;;
57303;SDS011;43150;50.986;18.208;2023-07-16T12:33:00;1.30;;;1.20;;
57303;SDS011;43150;50.986;18.208;2023-07-16T12:35:26;1.60;;;1.30;;
57303;SDS011;43150;50.986;18.208;2023-07-16T12:37:51;1.80;;;1.30;;
57303;SDS011;43150;50.986;18.208;2023-07-16T12:40:17;1.40;;;1.30;;
57303;SDS011;43150;50.986;18.208;2023-07-16T12:42:43;1.40;;;1.30;;
57303;SDS011;43150;50.986;18.208;2023-07-16T12:45:08;3.10;;;1.40;;
57303;SDS011;43150;50.986;18.208;2023-07-16T12:47:34;1.50;;;1.20;;
57303;SDS011;43150;50.986;18.208;2023-07-16T12:50:03;2.10;;;1.20;;
57303;SDS011;43150;50.986;18.208;2023-07-16T12:52:29;1.70;;;1.00;;
57303;SDS011;43150;50.986;18.208;2023-07-16T12:54:54;3.30;;;1.30;;
57303;SDS011;43150;50.986;18.208;2023-07-16T12:57:20;1.30;;;1.00;;
57303;SDS011;43150;50.986;18.208;2023-07-16T12:59:46;1.20;;;0.80;;
57303;SDS011;43150;50.986;18.208;2023-07-16T13:02:12;1.00;;;0.90;;
57303;SDS011;43150;50.986;18.208;2023-07-16T13:04:37;1.50;;;1.00;;
57303;SDS011;43150;50.986;18.208;2023-07-16T13:07:03;2.20;;;1.00;;
57303;SDS011;43150;50.986;18.208;2023-07-16T13:09:28;1.50;;;1.00;;
57303;SDS011;43150;50.986;18.208;2023-07-16T13:11:54;1.10;;;1.00;;
57303;SDS011;43150;50.986;18.208;2023-07-16T13:14:19;1.30;;;1.20;;
57303;SDS011;43150;50.986;18.208;2023-07-16T13:16:45;2.00;;;1.10;;
57303;SDS011;43150;50.986;18.208;2023-07-16T13:19:10;2.30;;;1.10;;
57303;SDS011;43150;50.986;18.208;2023-07-16T13:21:36;2.00;;;1.10;;
57303;SDS011;43150;50.986;18.208;2023-07-16T13:24:01;1.70;;;1.00;;
57303;SDS011;43150;50.986;18.208;2023-07-16T13:26:27;0.90;;;0.90;;
57303;SDS011;43150;50.986;18.208;2023-07-16T13:28:53;2.20;;;1.10;;
57303;SDS011;43150;50.986;18.208;2023-07-16T13:31:18;1.20;;;1.10;;
57303;SDS011;43150;50.986;18.208;2023-07-16T13:33:44;1.30;;;1.20;;
57303;SDS011;43150;50.986;18.208;2023-07-16T13:36:09;2.00;;;1.10;;
57303;SDS011;43150;50.986;18.208;2023-07-16T13:38:35;2.50;;;1.10;;
57303;SDS011;43150;50.986;18.208;2023-07-16T13:41:01;1.70;;;1.20;;
57303;SDS011;43150;50.986;18.208;2023-07-16T13:43:26;3.60;;;2.90;;
57303;SDS011;43150;50.986;18.208;2023-07-16T13:45:52;3.20;;;2.50;;
57303;SDS011;43150;50.986;18.208;2023-07-16T13:48:17;3.00;;;2.00;;
57303;SDS011;43150;50.986;18.208;2023-07-16T13:50:43;2.60;;;1.50;;
57303;SDS011;43150;50.986;18.208;2023-07-16T13:53:11;2.40;;;1.20;;
57303;SDS011;43150;50.986;18.208;2023-07-16T13:55:37;4.00;;;1.30;;
57303;SDS011;43150;50.986;18.208;2023-07-16T13:58:03;2.20;;;1.40;;
57303;SDS011;43150;50.986;18.208;2023-07-16T14:00:28;1.40;;;1.30;;
57303;SDS011;43150;50.986;18.208;2023-07-16T14:02:54;1.60;;;1.40;;
57303;SDS011;43150;50.986;18.208;2023-07-16T14:05:19;1.40;;;1.30;;
57303;SDS011;43150;50.986;18.208;2023-07-16T14:07:46;1.40;;;1.30;;
57303;SDS011;43150;50.986;18.208;2023-07-16T14:10:12;1.50;;;1.30;;
57303;SDS011;43150;50.986;18.208;2023-07-16T14:12:37;1.50;;;1.40;;
57303;SDS011;43150;50.986;18.208;2023-07-16T14:15:04;1.50;;;1.40;;
57303;SDS011;43150;50.986;18.208;2023-07-16T14:17:29;1.60;;;1.10;;
57303;SDS011;43150;50.986;18.208;2023-07-16T14:19:55;1.90;;;1.30;;
57303;SDS011;43150;50.986;18.208;2023-07-16T14:22:21;4.90;;;1.40;;
57303;SDS011;43150;50.986;18.208;2023-07-16T14:24:50;2.30;;;1.50;;
57303;SDS011;43150;50.986;18.208;2023-07-16T14:27:16;3.00;;;1.70;;
57303;SDS011;43150;50.986;18.208;2023-07-16T14:29:44;1.80;;;1.50;;
57303;SDS011;43150;50.986;18.208;2023-07-16T14:32:10;1.70;;;1.60;;
57303;SDS011;43150;50.986;18.208;2023-07-16T14:34:36;1.40;;;1.30;;
57303;SDS011;43150;50.986;18.208;2023-07-16T14:37:01;10.80;;;1.70;;
57303;SDS011;43150;50.986;18.208;2023-07-16T14:39:27;2.80;;;1.60;;
57303;SDS011;43150;50.986;18.208;2023-07-16T14:41:53;3.40;;;1.90;;
57303;SDS011;43150;50.986;18.208;2023-07-16T14:44:18;1.70;;;1.50;;